Time;durP1;ratioP1;P1;durP2;ratioP2;P2;SDS_P1;SDS_P2;PMS_P1;PMS_P2;Temp;Humidity;BMP_temperature;BMP_pressure;BME280_temperature;BME280_humidity;BME280_pressure;Samples;Min_cycle;Max_cycle;Signal;HPM_P1;HPM_P2
2022/03/30 00:01:17;;;;;;;61.30;26.17;;;;;;;;;;5098957;28;20023;-76
2022/03/30 00:03:42;;;;;;;62.53;26.37;;;;;;;;;;5116849;28;20087;-76
2022/03/30 00:06:07;;;;;;;64.40;25.13;;;;;;;;;;5116989;28;20260;-77
2022/03/30 00:08:33;;;;;;;61.35;25.83;;;;;;;;;;5098444;28;20024;-77
2022/03/30 00:10:59;;;;;;;63.80;26.70;;;;;;;;;;5116863;28;20110;-76
2022/03/30 00:13:25;;;;;;;63.47;26.25;;;;;;;;;;5099025;28;20047;-76
2022/03/30 00:15:51;;;;;;;62.92;27.00;;;;;;;;;;5117221;28;20617;-76
2022/03/30 00:18:16;;;;;;;69.80;26.35;;;;;;;;;;5099482;28;20039;-76
2022/03/30 00:20:41;;;;;;;60.17;26.08;;;;;;;;;;5117689;28;20024;-76
2022/03/30 00:23:07;;;;;;;64.45;26.08;;;;;;;;;;5117759;28;20057;-76
2022/03/30 00:25:33;;;;;;;58.03;24.63;;;;;;;;;;5099467;28;20502;-76
2022/03/30 00:27:58;;;;;;;70.07;27.10;;;;;;;;;;5118219;28;20523;-76
2022/03/30 00:30:23;;;;;;;67.10;26.52;;;;;;;;;;5100356;28;20020;-76
2022/03/30 00:32:49;;;;;;;63.17;25.65;;;;;;;;;;5118719;28;20023;-76
2022/03/30 00:35:15;;;;;;;63.28;25.80;;;;;;;;;;5100648;28;20030;-76
2022/03/30 00:37:41;;;;;;;60.25;25.58;;;;;;;;;;5119293;28;20480;-77
2022/03/30 00:40:09;;;;;;;59.35;24.63;;;;;;;;;;5099913;28;20031;-77
2022/03/30 00:42:35;;;;;;;64.40;26.85;;;;;;;;;;5101415;28;20027;-77
2022/03/30 00:45:08;;;;;;;70.43;26.48;;;;;;;;;;5119354;28;20373;-77
2022/03/30 00:47:34;;;;;;;55.67;25.88;;;;;;;;;;5118950;28;20442;-75
2022/03/30 00:49:59;;;;;;;62.55;25.58;;;;;;;;;;5100643;28;20027;-76
2022/03/30 00:52:24;;;;;;;58.03;25.57;;;;;;;;;;5100247;28;20027;-78
2022/03/30 00:54:51;;;;;;;61.00;26.77;;;;;;;;;;5118799;28;20256;-76
2022/03/30 00:57:21;;;;;;;55.70;25.58;;;;;;;;;;5099671;28;20032;-77
2022/03/30 00:59:47;;;;;;;57.28;24.77;;;;;;;;;;5118313;28;20031;-76
2022/03/30 01:02:13;;;;;;;64.70;26.52;;;;;;;;;;5119242;28;20455;-77
2022/03/30 01:04:38;;;;;;;58.33;25.98;;;;;;;;;;5119322;28;20519;-76
2022/03/30 01:07:04;;;;;;;57.83;25.30;;;;;;;;;;5100107;28;20039;-76
2022/03/30 01:09:29;;;;;;;59.97;25.38;;;;;;;;;;5118354;28;20030;-77
2022/03/30 01:11:56;;;;;;;61.05;25.65;;;;;;;;;;5118393;28;20024;-76
2022/03/30 01:14:23;;;;;;;66.97;25.90;;;;;;;;;;5117590;28;20028;-78
2022/03/30 01:16:48;;;;;;;58.83;25.13;;;;;;;;;;5117142;28;20476;-76
2022/03/30 01:19:14;;;;;;;68.82;25.80;;;;;;;;;;5098946;28;20034;-76
2022/03/30 01:21:40;;;;;;;60.67;25.67;;;;;;;;;;5099562;28;20484;-76
2022/03/30 01:24:08;;;;;;;58.35;24.48;;;;;;;;;;5117840;28;20024;-77
2022/03/30 01:26:34;;;;;;;56.45;24.45;;;;;;;;;;5099062;28;20089;-76
2022/03/30 01:28:59;;;;;;;61.30;26.20;;;;;;;;;;5116488;28;20036;-76
2022/03/30 01:34:09;;;;;;;63.50;25.20;;;;;;;;;;5117692;28;20556;-76
2022/03/30 01:36:35;;;;;;;59.85;24.45;;;;;;;;;;5118201;28;20031;-76
2022/03/30 01:39:02;;;;;;;64.57;24.50;;;;;;;;;;5098657;28;20040;-77
2022/03/30 01:41:29;;;;;;;57.63;24.45;;;;;;;;;;5115479;28;20020;-77
2022/03/30 01:43:54;;;;;;;66.57;25.02;;;;;;;;;;5115474;28;20024;-77
2022/03/30 01:46:19;;;;;;;60.17;24.27;;;;;;;;;;5115080;28;20388;-77
2022/03/30 01:48:45;;;;;;;68.00;26.30;;;;;;;;;;5115227;28;20381;-77
2022/03/30 01:51:10;;;;;;;63.08;23.45;;;;;;;;;;5114754;28;20058;-76
2022/03/30 01:53:35;;;;;;;62.72;25.10;;;;;;;;;;5115669;28;20189;-76
2022/03/30 01:56:00;;;;;;;65.00;25.83;;;;;;;;;;5097098;28;20031;-77
2022/03/30 01:58:25;;;;;;;54.47;23.17;;;;;;;;;;5097304;28;20034;-77
2022/03/30 02:00:51;;;;;;;63.65;25.35;;;;;;;;;;5115281;28;20095;-77
2022/03/30 02:03:16;;;;;;;63.35;25.00;;;;;;;;;;5096632;28;20043;-77
2022/03/30 02:05:42;;;;;;;65.97;26.70;;;;;;;;;;5115599;28;20059;-77
2022/03/30 02:08:07;;;;;;;65.00;25.13;;;;;;;;;;5115068;28;20031;-76
2022/03/30 02:10:32;;;;;;;59.40;25.48;;;;;;;;;;5115345;28;20027;-75
2022/03/30 02:12:58;;;;;;;57.60;23.48;;;;;;;;;;5114615;28;20028;-75
2022/03/30 02:15:24;;;;;;;61.55;25.02;;;;;;;;;;5114671;28;20019;-75
2022/03/30 02:17:50;;;;;;;55.47;23.15;;;;;;;;;;5114596;28;20107;-76
2022/03/30 02:20:15;;;;;;;53.10;23.38;;;;;;;;;;5114414;28;20400;-76
2022/03/30 02:22:40;;;;;;;62.30;24.83;;;;;;;;;;5114495;28;20076;-76
2022/03/30 02:25:06;;;;;;;58.42;23.73;;;;;;;;;;5115130;28;20066;-76
2022/03/30 02:27:32;;;;;;;57.60;22.92;;;;;;;;;;5114890;28;20027;-77
2022/03/30 02:29:57;;;;;;;58.78;25.25;;;;;;;;;;5096684;28;20490;-77
2022/03/30 02:32:22;;;;;;;56.00;24.23;;;;;;;;;;5115070;28;20115;-77
2022/03/30 02:34:48;;;;;;;65.18;25.05;;;;;;;;;;5114809;28;20031;-77
2022/03/30 02:37:13;;;;;;;58.22;25.00;;;;;;;;;;5115522;28;20073;-77
2022/03/30 02:39:41;;;;;;;63.03;23.63;;;;;;;;;;5115040;28;20069;-76
2022/03/30 02:42:07;;;;;;;53.25;22.30;;;;;;;;;;5115218;28;20455;-76
2022/03/30 02:44:34;;;;;;;59.58;24.52;;;;;;;;;;5114153;28;20073;-77
2022/03/30 02:51:15;;;;;;;56.58;23.48;;;;;;;;;;5115287;28;20172;-76
2022/03/30 02:53:40;;;;;;;57.10;22.27;;;;;;;;;;5096799;28;20019;-77
2022/03/30 02:56:06;;;;;;;57.15;22.58;;;;;;;;;;5096885;28;20392;-77
2022/03/30 02:58:31;;;;;;;62.53;24.17;;;;;;;;;;5096226;28;20031;-77
2022/03/30 03:00:57;;;;;;;61.38;24.33;;;;;;;;;;5096659;28;20058;-77
2022/03/30 03:03:23;;;;;;;57.88;23.85;;;;;;;;;;5116601;28;20549;-77
2022/03/30 03:05:48;;;;;;;56.60;24.02;;;;;;;;;;5119093;28;20168;-76
2022/03/30 03:08:14;;;;;;;58.08;24.42;;;;;;;;;;5118397;28;20081;-77
2022/03/30 03:10:41;;;;;;;58.65;25.23;;;;;;;;;;5118376;28;20023;-77
2022/03/30 03:13:07;;;;;;;55.63;23.55;;;;;;;;;;5118323;28;20027;-76
2022/03/30 03:15:36;;;;;;;58.45;23.23;;;;;;;;;;5118316;28;20024;-77
2022/03/30 03:18:03;;;;;;;59.80;24.80;;;;;;;;;;5118026;28;20063;-77
2022/03/30 03:20:29;;;;;;;59.25;23.60;;;;;;;;;;5118760;28;20480;-77
2022/03/30 03:22:55;;;;;;;55.50;23.40;;;;;;;;;;5118161;28;20030;-75
2022/03/30 03:25:20;;;;;;;49.40;22.65;;;;;;;;;;5118202;28;20031;-77
2022/03/30 03:27:46;;;;;;;56.58;24.10;;;;;;;;;;5118299;28;20034;-77
2022/03/30 03:30:13;;;;;;;57.85;22.80;;;;;;;;;;5100204;28;20020;-77
2022/03/30 03:32:38;;;;;;;53.30;23.02;;;;;;;;;;5118225;28;20152;-77
2022/03/30 03:35:04;;;;;;;52.40;23.08;;;;;;;;;;5118882;28;20076;-78
2022/03/30 03:37:29;;;;;;;53.70;21.65;;;;;;;;;;5118902;28;20035;-77
2022/03/30 03:39:54;;;;;;;50.53;22.52;;;;;;;;;;5118751;28;20087;-76
2022/03/30 03:42:21;;;;;;;56.35;22.65;;;;;;;;;;5118474;28;20031;-77
2022/03/30 03:44:46;;;;;;;47.83;22.05;;;;;;;;;;5118867;28;20047;-77
2022/03/30 03:47:12;;;;;;;54.30;22.35;;;;;;;;;;5117832;28;20030;-77
2022/03/30 03:49:37;;;;;;;54.10;23.15;;;;;;;;;;5117675;28;20038;-77
2022/03/30 03:52:04;;;;;;;53.83;22.67;;;;;;;;;;5117349;28;20385;-77
2022/03/30 03:54:29;;;;;;;54.45;22.67;;;;;;;;;;5117616;28;20107;-77
2022/03/30 03:56:54;;;;;;;47.60;21.95;;;;;;;;;;5099550;28;20063;-77
2022/03/30 03:59:20;;;;;;;54.50;23.48;;;;;;;;;;5118300;28;20031;-77
2022/03/30 04:01:45;;;;;;;49.92;21.35;;;;;;;;;;5099430;28;20036;-77
2022/03/30 04:04:10;;;;;;;49.65;21.40;;;;;;;;;;5117365;28;20103;-77
2022/03/30 04:06:35;;;;;;;57.55;22.02;;;;;;;;;;5100005;28;20036;-77
2022/03/30 04:09:00;;;;;;;51.13;21.90;;;;;;;;;;5118569;28;20027;-76
2022/03/30 04:11:26;;;;;;;57.70;21.80;;;;;;;;;;5117846;28;20496;-76
2022/03/30 04:13:51;;;;;;;51.42;22.50;;;;;;;;;;5118032;28;20380;-75
2022/03/30 04:16:17;;;;;;;59.60;23.00;;;;;;;;;;5099135;28;20031;-76
2022/03/30 04:18:43;;;;;;;60.60;23.42;;;;;;;;;;5099015;28;20484;-76
2022/03/30 04:21:09;;;;;;;58.65;22.35;;;;;;;;;;5118386;28;20081;-76
2022/03/30 04:23:34;;;;;;;50.67;21.73;;;;;;;;;;5117364;28;20430;-77
2022/03/30 04:26:00;;;;;;;54.20;22.05;;;;;;;;;;5099141;28;20076;-76
2022/03/30 04:28:25;;;;;;;63.50;23.40;;;;;;;;;;5116585;28;20118;-76
2022/03/30 04:30:51;;;;;;;48.47;21.98;;;;;;;;;;5116891;28;20019;-76
2022/03/30 04:33:16;;;;;;;53.67;21.35;;;;;;;;;;5118253;28;20028;-77
2022/03/30 04:35:41;;;;;;;50.50;22.80;;;;;;;;;;5117720;28;20023;-77
2022/03/30 04:38:07;;;;;;;54.25;22.85;;;;;;;;;;5117764;28;20511;-75
2022/03/30 04:40:32;;;;;;;49.22;22.17;;;;;;;;;;5117651;28;20484;-75
2022/03/30 04:42:58;;;;;;;54.65;20.08;;;;;;;;;;5117836;28;20088;-75
2022/03/30 04:45:24;;;;;;;56.75;22.20;;;;;;;;;;5117057;28;20055;-77
2022/03/30 04:47:50;;;;;;;56.47;22.13;;;;;;;;;;5098347;28;20023;-77
2022/03/30 04:50:15;;;;;;;58.13;21.85;;;;;;;;;;5098314;28;20030;-77
2022/03/30 04:52:41;;;;;;;58.67;21.33;;;;;;;;;;5117303;28;20039;-77
2022/03/30 04:55:09;;;;;;;49.15;20.92;;;;;;;;;;5117761;28;20034;-77
2022/03/30 04:57:34;;;;;;;55.08;21.42;;;;;;;;;;5117841;28;20039;-76
2022/03/30 04:59:59;;;;;;;50.95;20.60;;;;;;;;;;5100215;28;20027;-75
2022/03/30 05:02:32;;;;;;;52.83;21.85;;;;;;;;;;5118008;28;20123;-76
2022/03/30 05:04:57;;;;;;;53.47;21.48;;;;;;;;;;5117700;28;20031;-75
2022/03/30 05:07:22;;;;;;;58.63;22.88;;;;;;;;;;5118216;28;20061;-77
2022/03/30 05:09:47;;;;;;;52.38;22.45;;;;;;;;;;5118619;28;20034;-77
2022/03/30 05:12:13;;;;;;;52.45;21.90;;;;;;;;;;5118792;28;20027;-77
2022/03/30 05:14:38;;;;;;;53.22;21.98;;;;;;;;;;5119741;28;20015;-77
2022/03/30 05:17:04;;;;;;;48.65;20.98;;;;;;;;;;5116571;28;20500;-76
2022/03/30 05:19:29;;;;;;;55.55;23.70;;;;;;;;;;5116625;28;20047;-76
2022/03/30 05:21:55;;;;;;;51.78;22.13;;;;;;;;;;5116183;28;20102;-76
2022/03/30 05:24:20;;;;;;;59.05;22.85;;;;;;;;;;5097591;28;20057;-76
2022/03/30 05:26:45;;;;;;;55.57;22.40;;;;;;;;;;5115118;28;20035;-77
2022/03/30 05:29:11;;;;;;;52.35;22.90;;;;;;;;;;5115633;28;20267;-76
2022/03/30 05:31:36;;;;;;;52.15;21.30;;;;;;;;;;5115746;28;20027;-74
2022/03/30 05:34:01;;;;;;;49.03;21.45;;;;;;;;;;5115411;28;20019;-76
2022/03/30 05:36:26;;;;;;;59.47;23.38;;;;;;;;;;5114993;28;20028;-76
2022/03/30 05:38:52;;;;;;;54.27;22.10;;;;;;;;;;5116012;28;20067;-77
2022/03/30 05:41:18;;;;;;;55.63;21.85;;;;;;;;;;5116185;28;20259;-77
2022/03/30 05:43:43;;;;;;;54.38;22.67;;;;;;;;;;5115194;28;20020;-78
2022/03/30 05:46:08;;;;;;;49.58;21.00;;;;;;;;;;5115261;28;20019;-76
2022/03/30 05:48:34;;;;;;;52.22;22.25;;;;;;;;;;5114655;28;20030;-76
2022/03/30 05:50:59;;;;;;;50.03;22.00;;;;;;;;;;5115263;28;20118;-77
2022/03/30 05:53:25;;;;;;;51.03;22.57;;;;;;;;;;5097108;28;20046;-77
2022/03/30 05:55:50;;;;;;;50.17;21.40;;;;;;;;;;5115113;28;20251;-76
2022/03/30 05:58:15;;;;;;;47.03;20.63;;;;;;;;;;5096707;28;20037;-76
2022/03/30 06:00:41;;;;;;;52.60;22.02;;;;;;;;;;5114949;28;20108;-76
2022/03/30 06:03:07;;;;;;;46.90;21.27;;;;;;;;;;5115070;28;20024;-77
2022/03/30 06:05:33;;;;;;;53.72;22.17;;;;;;;;;;5115550;28;20426;-76
2022/03/30 06:07:59;;;;;;;53.00;22.10;;;;;;;;;;5115314;28;20035;-76
2022/03/30 06:10:26;;;;;;;54.63;22.60;;;;;;;;;;5116100;28;20015;-76
2022/03/30 06:12:52;;;;;;;53.80;22.77;;;;;;;;;;5115465;28;20027;-76
2022/03/30 06:15:18;;;;;;;48.67;21.00;;;;;;;;;;5115343;28;20028;-76
2022/03/30 06:17:43;;;;;;;55.05;22.95;;;;;;;;;;5114844;28;20035;-76
2022/03/30 06:20:10;;;;;;;49.40;21.70;;;;;;;;;;5115098;28;20027;-78
2022/03/30 06:22:36;;;;;;;49.35;22.38;;;;;;;;;;5114176;28;20035;-76
2022/03/30 06:25:02;;;;;;;54.65;22.08;;;;;;;;;;5114522;28;20481;-76
2022/03/30 06:27:27;;;;;;;48.47;21.35;;;;;;;;;;5113962;28;20031;-76
2022/03/30 06:29:53;;;;;;;46.60;21.20;;;;;;;;;;5114759;28;20384;-76
2022/03/30 06:32:19;;;;;;;53.20;22.23;;;;;;;;;;5114868;28;20032;-77
2022/03/30 06:34:44;;;;;;;50.05;21.45;;;;;;;;;;5114518;28;20068;-77
2022/03/30 06:37:09;;;;;;;59.92;21.20;;;;;;;;;;5114579;28;20024;-77
2022/03/30 06:39:35;;;;;;;48.40;21.63;;;;;;;;;;5118960;28;20023;-76
2022/03/30 06:42:01;;;;;;;47.97;21.15;;;;;;;;;;5118930;28;20106;-76
2022/03/30 06:44:26;;;;;;;57.65;21.92;;;;;;;;;;5119741;28;20019;-75
2022/03/30 06:46:52;;;;;;;52.45;20.65;;;;;;;;;;5100776;28;20513;-76
2022/03/30 06:49:17;;;;;;;48.38;21.63;;;;;;;;;;5119334;28;20023;-76
2022/03/30 06:51:43;;;;;;;51.90;21.92;;;;;;;;;;5100439;28;20020;-76
2022/03/30 06:54:08;;;;;;;49.83;21.33;;;;;;;;;;5100517;28;20015;-76
2022/03/30 06:56:34;;;;;;;53.38;21.55;;;;;;;;;;5118714;28;20023;-76
2022/03/30 06:58:59;;;;;;;54.42;23.58;;;;;;;;;;5118330;28;20040;-75
2022/03/30 07:01:24;;;;;;;56.40;22.73;;;;;;;;;;5118767;28;20022;-76
2022/03/30 07:03:50;;;;;;;48.75;21.77;;;;;;;;;;5118880;28;20030;-76
2022/03/30 07:06:16;;;;;;;55.03;21.63;;;;;;;;;;5117922;28;20424;-76
2022/03/30 07:11:26;;;;;;;48.60;21.50;;;;;;;;;;5118620;28;20078;-76
2022/03/30 07:13:52;;;;;;;49.55;21.05;;;;;;;;;;5117971;28;20488;-76
2022/03/30 07:16:18;;;;;;;47.17;20.98;;;;;;;;;;5118505;28;20039;-78
2022/03/30 07:18:43;;;;;;;48.13;21.85;;;;;;;;;;5118161;28;20023;-77
2022/03/30 07:21:09;;;;;;;52.28;22.75;;;;;;;;;;5118393;28;20085;-76
2022/03/30 07:23:34;;;;;;;50.83;21.30;;;;;;;;;;5117829;28;20110;-77
2022/03/30 07:26:00;;;;;;;44.75;20.25;;;;;;;;;;5099790;28;20480;-77
2022/03/30 07:28:26;;;;;;;48.42;21.08;;;;;;;;;;5118059;28;20156;-76
2022/03/30 07:30:53;;;;;;;45.38;21.40;;;;;;;;;;5100203;28;20373;-77
2022/03/30 07:33:18;;;;;;;43.05;20.67;;;;;;;;;;5100432;28;20024;-76
2022/03/30 07:35:46;;;;;;;47.08;20.10;;;;;;;;;;5118830;28;20384;-76
2022/03/30 07:38:13;;;;;;;42.97;20.58;;;;;;;;;;5118113;28;20565;-76
2022/03/30 07:40:39;;;;;;;44.65;20.33;;;;;;;;;;5118189;28;20035;-77
2022/03/30 07:43:04;;;;;;;55.35;20.67;;;;;;;;;;5082544;28;20020;-76
2022/03/30 07:45:29;;;;;;;48.83;19.90;;;;;;;;;;5100024;28;20027;-76
2022/03/30 07:47:55;;;;;;;52.38;20.90;;;;;;;;;;5098743;28;20066;-76
2022/03/30 07:50:20;;;;;;;50.15;19.83;;;;;;;;;;5098795;28;20043;-77
2022/03/30 07:52:46;;;;;;;42.88;19.98;;;;;;;;;;5117818;28;20024;-76
2022/03/30 07:55:12;;;;;;;51.15;19.33;;;;;;;;;;5118289;28;20043;-77
2022/03/30 07:57:39;;;;;;;50.60;20.67;;;;;;;;;;5117765;28;20412;-76
2022/03/30 08:00:07;;;;;;;44.17;19.60;;;;;;;;;;5117908;28;20452;-76
2022/03/30 08:02:33;;;;;;;52.17;20.20;;;;;;;;;;5099249;28;20504;-77
2022/03/30 08:04:58;;;;;;;45.28;20.63;;;;;;;;;;5117831;28;20032;-76
2022/03/30 08:07:26;;;;;;;47.83;21.08;;;;;;;;;;5117278;28;20028;-77
2022/03/30 08:09:51;;;;;;;46.50;19.73;;;;;;;;;;5098875;28;20049;-78
2022/03/30 08:12:17;;;;;;;44.58;18.83;;;;;;;;;;5099616;28;20031;-77
2022/03/30 08:14:42;;;;;;;41.13;20.08;;;;;;;;;;5117524;28;20015;-77
2022/03/30 08:17:08;;;;;;;41.55;18.10;;;;;;;;;;5117643;28;20110;-77
2022/03/30 08:19:34;;;;;;;44.53;18.60;;;;;;;;;;5099329;28;20032;-77
2022/03/30 08:24:46;;;;;;;34.22;16.52;;;;;;;;;;5118178;28;20039;-77
2022/03/30 08:27:16;;;;;;;40.80;16.73;;;;;;;;;;5098300;28;20028;-76
2022/03/30 08:29:43;;;;;;;34.60;17.10;;;;;;;;;;5116558;28;20019;-77
2022/03/30 08:32:09;;;;;;;37.75;14.15;;;;;;;;;;5116472;28;20053;-75
2022/03/30 08:34:34;;;;;;;35.95;14.35;;;;;;;;;;5116928;28;20024;-77
2022/03/30 08:37:00;;;;;;;30.92;13.75;;;;;;;;;;5116579;28;20024;-78
2022/03/30 08:39:25;;;;;;;27.95;11.55;;;;;;;;;;5097953;28;20032;-77
2022/03/30 08:41:50;;;;;;;27.58;11.00;;;;;;;;;;5097533;28;20077;-77
2022/03/30 08:44:17;;;;;;;25.37;11.00;;;;;;;;;;5116446;28;20019;-77
2022/03/30 08:46:45;;;;;;;25.50;11.82;;;;;;;;;;5098193;28;20317;-77
2022/03/30 08:49:11;;;;;;;31.27;12.35;;;;;;;;;;5116757;28;20495;-78
2022/03/30 08:51:38;;;;;;;31.83;13.52;;;;;;;;;;5118434;28;20036;-79
2022/03/30 08:54:05;;;;;;;30.33;13.50;;;;;;;;;;5118018;28;20468;-78
2022/03/30 08:56:30;;;;;;;24.58;12.57;;;;;;;;;;5118222;28;20020;-78
2022/03/30 08:59:09;;;;;;;23.40;12.23;;;;;;;;;;5100145;28;20092;-77
2022/03/30 09:01:37;;;;;;;29.95;12.63;;;;;;;;;;5115017;28;20092;-78
2022/03/30 09:04:05;;;;;;;25.83;12.32;;;;;;;;;;5115824;28;20026;-77
2022/03/30 09:06:41;;;;;;;34.00;13.60;;;;;;;;;;5119330;28;20038;-77
2022/03/30 09:09:06;;;;;;;26.50;11.27;;;;;;;;;;5117909;28;20361;-78
2022/03/30 09:11:44;;;;;;;29.05;13.00;;;;;;;;;;5117440;28;20027;-77
2022/03/30 09:14:11;;;;;;;35.67;15.27;;;;;;;;;;5115935;28;20016;-78
2022/03/30 09:16:42;;;;;;;32.20;15.13;;;;;;;;;;5097408;28;20023;-78
2022/03/30 09:19:09;;;;;;;31.85;14.70;;;;;;;;;;5115820;28;20047;-78
2022/03/30 09:21:56;;;;;;;30.52;14.02;;;;;;;;;;5116211;28;20448;-77
2022/03/30 09:24:28;;;;;;;25.30;11.85;;;;;;;;;;5098841;28;20031;-77
2022/03/30 09:26:54;;;;;;;22.48;9.85;;;;;;;;;;5097820;28;20035;-78
2022/03/30 09:29:26;;;;;;;29.20;11.82;;;;;;;;;;5116062;28;20028;-77
2022/03/30 09:31:52;;;;;;;34.08;11.07;;;;;;;;;;5116078;28;20388;-77
2022/03/30 09:34:19;;;;;;;29.60;12.13;;;;;;;;;;5116025;28;20028;-77
2022/03/30 09:36:45;;;;;;;27.55;11.95;;;;;;;;;;5115758;28;20027;-77
2022/03/30 09:39:31;;;;;;;30.45;13.25;;;;;;;;;;5114980;28;20023;-77
2022/03/30 09:41:59;;;;;;;30.95;12.88;;;;;;;;;;5115663;28;20058;-77
2022/03/30 09:44:25;;;;;;;26.73;11.63;;;;;;;;;;5097173;28;20503;-78
2022/03/30 09:46:56;;;;;;;28.27;12.18;;;;;;;;;;5115638;28;20077;-77
2022/03/30 09:49:45;;;;;;;30.25;12.95;;;;;;;;;;5115288;28;20114;-76
2022/03/30 09:52:10;;;;;;;31.80;13.65;;;;;;;;;;5116103;28;20028;-78
2022/03/30 09:54:51;;;;;;;32.65;13.55;;;;;;;;;;5097460;28;20073;-78
2022/03/30 09:57:36;;;;;;;36.95;14.70;;;;;;;;;;5115520;28;20388;-78
2022/03/30 10:00:10;;;;;;;39.53;15.55;;;;;;;;;;5114398;28;20038;-77
2022/03/30 10:02:38;;;;;;;30.92;14.30;;;;;;;;;;5114883;28;20078;-77
2022/03/30 10:05:06;;;;;;;33.10;14.77;;;;;;;;;;5114994;28;20073;-77
2022/03/30 10:07:32;;;;;;;28.70;13.68;;;;;;;;;;5114424;28;20055;-77
2022/03/30 10:09:58;;;;;;;36.65;14.82;;;;;;;;;;5115790;28;20050;-77
2022/03/30 10:12:26;;;;;;;29.65;14.55;;;;;;;;;;5096776;28;20019;-77
2022/03/30 10:14:51;;;;;;;31.80;14.27;;;;;;;;;;5114911;28;20016;-77
2022/03/30 10:17:18;;;;;;;41.10;15.02;;;;;;;;;;5114833;28;20481;-78
2022/03/30 10:19:44;;;;;;;30.88;13.95;;;;;;;;;;5096925;28;20020;-77
2022/03/30 10:22:15;;;;;;;34.45;14.52;;;;;;;;;;5116485;28;20019;-78
2022/03/30 10:25:08;;;;;;;32.42;13.93;;;;;;;;;;5116899;28;20415;-78
2022/03/30 10:27:48;;;;;;;34.60;14.15;;;;;;;;;;5114764;28;20027;-77
2022/03/30 10:30:13;;;;;;;34.35;15.75;;;;;;;;;;5096922;28;20084;-77
2022/03/30 10:32:39;;;;;;;34.63;14.65;;;;;;;;;;5097168;28;20023;-77
2022/03/30 10:35:08;;;;;;;32.03;13.82;;;;;;;;;;5114498;28;20051;-78
2022/03/30 10:37:39;;;;;;;37.20;16.58;;;;;;;;;;5097024;28;20511;-77
2022/03/30 10:40:19;;;;;;;38.50;16.25;;;;;;;;;;5116278;28;20045;-77
2022/03/30 10:42:47;;;;;;;34.85;15.77;;;;;;;;;;5096058;28;20042;-77
2022/03/30 10:45:24;;;;;;;32.15;14.38;;;;;;;;;;5114657;28;20028;-77
2022/03/30 10:48:09;;;;;;;36.00;15.93;;;;;;;;;;5114857;28;20027;-78
2022/03/30 10:50:37;;;;;;;39.47;16.48;;;;;;;;;;5116529;28;20023;-78
2022/03/30 10:53:02;;;;;;;40.50;16.77;;;;;;;;;;5098359;28;20019;-77
2022/03/30 10:55:33;;;;;;;33.70;15.77;;;;;;;;;;5115439;28;20023;-78
2022/03/30 10:58:03;;;;;;;37.75;15.85;;;;;;;;;;5115724;28;20038;-78
2022/03/30 11:00:38;;;;;;;34.58;16.20;;;;;;;;;;5115114;28;20519;-77
2022/03/30 11:03:20;;;;;;;40.58;17.55;;;;;;;;;;5114918;28;20059;-78
2022/03/30 11:05:59;;;;;;;42.78;17.88;;;;;;;;;;5117697;28;20030;-78
2022/03/30 11:08:33;;;;;;;45.10;17.80;;;;;;;;;;5097755;28;20027;-76
2022/03/30 11:11:19;;;;;;;33.92;14.57;;;;;;;;;;5115125;28;20034;-77
2022/03/30 11:13:44;;;;;;;34.85;13.40;;;;;;;;;;5115600;28;20031;-76
2022/03/30 11:16:11;;;;;;;27.70;12.25;;;;;;;;;;5115581;28;20028;-77
2022/03/30 11:18:54;;;;;;;33.60;11.82;;;;;;;;;;5115499;28;20020;-78
2022/03/30 11:21:19;;;;;;;26.63;9.90;;;;;;;;;;5115770;28;20443;-77
2022/03/30 11:24:10;;;;;;;26.90;10.55;;;;;;;;;;5098086;28;20049;-77
2022/03/30 11:26:47;;;;;;;28.33;9.82;;;;;;;;;;5119059;28;20395;-77
2022/03/30 11:29:40;;;;;;;23.55;9.98;;;;;;;;;;5100851;28;20111;-77
2022/03/30 11:32:34;;;;;;;21.95;8.95;;;;;;;;;;5119024;28;20516;-77
2022/03/30 11:35:02;;;;;;;24.77;9.25;;;;;;;;;;5112870;28;20084;-77
2022/03/30 11:37:35;;;;;;;22.77;9.18;;;;;;;;;;5118441;28;20472;-78
2022/03/30 11:40:06;;;;;;;22.75;8.43;;;;;;;;;;5118972;28;20035;-77
2022/03/30 11:42:31;;;;;;;24.42;9.60;;;;;;;;;;5100485;28;20028;-77
2022/03/30 11:45:13;;;;;;;23.70;9.52;;;;;;;;;;5100441;28;20076;-77
2022/03/30 11:47:47;;;;;;;20.88;8.23;;;;;;;;;;5118788;28;20080;-77
2022/03/30 11:50:13;;;;;;;;;;;;;;;;;;5100194;28;20080;-77
2022/03/30 11:52:39;;;;;;;20.65;9.25;;;;;;;;;;5118495;28;19930;-77
2022/03/30 11:55:05;;;;;;;28.35;9.73;;;;;;;;;;5118337;28;20106;-77
2022/03/30 11:57:40;;;;;;;22.25;9.02;;;;;;;;;;5118047;28;20545;-77
2022/03/30 12:00:09;;;;;;;26.60;9.80;;;;;;;;;;5119017;28;20095;-77
2022/03/30 12:02:41;;;;;;;18.92;9.07;;;;;;;;;;5100653;28;20389;-78
2022/03/30 12:05:07;;;;;;;22.27;9.07;;;;;;;;;;5100415;28;20038;-77
2022/03/30 12:07:35;;;;;;;21.58;9.48;;;;;;;;;;5118228;28;20038;-77
2022/03/30 12:10:02;;;;;;;24.55;9.82;;;;;;;;;;5118711;28;20026;-76
2022/03/30 12:12:35;;;;;;;17.63;6.65;;;;;;;;;;5118323;28;20027;-77
2022/03/30 12:15:09;;;;;;;20.00;9.27;;;;;;;;;;5118010;28;20381;-76
2022/03/30 12:17:36;;;;;;;19.80;9.00;;;;;;;;;;5099917;28;20088;-76
2022/03/30 12:20:05;;;;;;;15.32;6.65;;;;;;;;;;5100175;28;20442;-77
2022/03/30 12:22:31;;;;;;;15.27;6.00;;;;;;;;;;5117793;28;20028;-77
2022/03/30 12:24:56;;;;;;;20.92;8.60;;;;;;;;;;5117629;28;20031;-77
2022/03/30 12:27:23;;;;;;;19.75;7.70;;;;;;;;;;5099477;28;20028;-77
2022/03/30 12:29:48;;;;;;;19.65;8.68;;;;;;;;;;5118024;28;20024;-77
2022/03/30 12:32:15;;;;;;;18.05;7.13;;;;;;;;;;5099303;28;20390;-77
2022/03/30 12:34:42;;;;;;;19.27;8.02;;;;;;;;;;5117849;28;20426;-76
2022/03/30 12:37:10;;;;;;;8.13;4.22;;;;;;;;;;5117837;28;20037;-77
2022/03/30 12:39:39;;;;;;;19.08;6.15;;;;;;;;;;5117986;28;20020;-76
2022/03/30 12:42:08;;;;;;;21.23;6.90;;;;;;;;;;5117999;28;20031;-77
2022/03/30 12:44:39;;;;;;;25.10;8.38;;;;;;;;;;5099084;28;20020;-75
2022/03/30 12:47:05;;;;;;;19.02;8.93;;;;;;;;;;5117405;28;20034;-76
2022/03/30 12:49:39;;;;;;;20.10;8.52;;;;;;;;;;5117313;28;20387;-76
2022/03/30 12:52:15;;;;;;;16.90;7.93;;;;;;;;;;5099859;28;20589;-77
2022/03/30 12:54:43;;;;;;;21.00;7.45;;;;;;;;;;5099530;28;20480;-76
2022/03/30 12:57:09;;;;;;;17.90;6.55;;;;;;;;;;5117443;28;20401;-76
2022/03/30 12:59:38;;;;;;;15.73;5.80;;;;;;;;;;5101406;28;20059;-75
2022/03/30 13:02:17;;;;;;;21.48;8.50;;;;;;;;;;5118465;28;20040;-76
2022/03/30 13:04:55;;;;;;;19.58;6.63;;;;;;;;;;5117548;28;20031;-76
2022/03/30 13:07:25;;;;;;;18.80;7.78;;;;;;;;;;5117107;28;20488;-76
2022/03/30 13:09:59;;;;;;;18.27;6.47;;;;;;;;;;5099281;28;20035;-76
2022/03/30 13:12:50;;;;;;;24.17;8.48;;;;;;;;;;5098520;28;20024;-76
2022/03/30 13:15:18;;;;;;;19.00;8.35;;;;;;;;;;5117058;28;20026;-76
2022/03/30 13:18:04;;;;;;;18.73;8.25;;;;;;;;;;5117295;28;20028;-76
2022/03/30 13:20:32;;;;;;;20.38;8.27;;;;;;;;;;5099508;28;20451;-76
2022/03/30 13:22:59;;;;;;;17.23;7.38;;;;;;;;;;5116892;28;20032;-75
2022/03/30 13:25:29;;;;;;;17.40;7.35;;;;;;;;;;5116073;28;20062;-75
2022/03/30 13:27:55;;;;;;;13.57;6.38;;;;;;;;;;5097978;28;20028;-77
2022/03/30 13:30:21;;;;;;;17.80;7.90;;;;;;;;;;5116399;28;20022;-75
2022/03/30 13:32:46;;;;;;;19.63;7.97;;;;;;;;;;5116577;28;20028;-76
2022/03/30 13:35:12;;;;;;;11.27;4.70;;;;;;;;;;5116386;28;20083;-75
2022/03/30 13:37:37;;;;;;;17.90;7.75;;;;;;;;;;5115771;28;20057;-76
2022/03/30 13:40:04;;;;;;;18.98;8.07;;;;;;;;;;5115795;28;20051;-75
2022/03/30 13:42:30;;;;;;;19.67;8.43;;;;;;;;;;5097740;28;20032;-76
2022/03/30 13:44:55;;;;;;;11.80;6.25;;;;;;;;;;5116000;28;20097;-75
2022/03/30 13:47:21;;;;;;;17.30;7.28;;;;;;;;;;5115486;28;20032;-75
2022/03/30 13:49:47;;;;;;;17.42;7.22;;;;;;;;;;5116025;28;20039;-76
2022/03/30 13:52:14;;;;;;;21.83;9.00;;;;;;;;;;5116003;28;20028;-75
2022/03/30 13:54:39;;;;;;;28.15;9.45;;;;;;;;;;5115571;28;20062;-76
2022/03/30 13:57:05;;;;;;;29.95;9.57;;;;;;;;;;5116803;28;20034;-76
2022/03/30 13:59:30;;;;;;;18.65;7.45;;;;;;;;;;5116361;28;20484;-76
2022/03/30 14:01:55;;;;;;;20.73;8.20;;;;;;;;;;5099267;28;20026;-76
2022/03/30 14:04:21;;;;;;;20.83;8.63;;;;;;;;;;5119479;28;20280;-76
2022/03/30 14:06:46;;;;;;;26.48;10.40;;;;;;;;;;5119605;28;20557;-74
2022/03/30 14:09:11;;;;;;;22.38;9.07;;;;;;;;;;5119453;28;20024;-76
2022/03/30 14:11:36;;;;;;;25.77;9.25;;;;;;;;;;5119549;28;20498;-75
2022/03/30 14:14:02;;;;;;;23.08;9.18;;;;;;;;;;5116983;28;20544;-76
2022/03/30 14:16:27;;;;;;;19.05;9.50;;;;;;;;;;5117525;28;20055;-75
2022/03/30 14:18:52;;;;;;;19.00;9.73;;;;;;;;;;5116985;28;20023;-76
2022/03/30 14:21:17;;;;;;;20.03;8.73;;;;;;;;;;5117008;28;20035;-75
2022/03/30 14:23:43;;;;;;;24.20;9.68;;;;;;;;;;5118036;28;20275;-76
2022/03/30 14:26:08;;;;;;;25.88;11.40;;;;;;;;;;5116223;28;20030;-77
2022/03/30 14:28:34;;;;;;;28.40;10.90;;;;;;;;;;5114827;28;20031;-76
2022/03/30 14:31:00;;;;;;;25.40;10.10;;;;;;;;;;5096995;28;20029;-75
2022/03/30 14:33:25;;;;;;;23.55;10.70;;;;;;;;;;5115655;28;20056;-75
2022/03/30 14:35:51;;;;;;;22.58;10.05;;;;;;;;;;5115340;28;20031;-74